Portada
METAR-TAF:

METAR-TAF

Aeropuertos :

Aeropuerto Internacional Owen Roberts

George Town, Gran Caimán, Islas Caimán

latitud: 19-17N, longitud: 081-21W, altitud: 3 m

Observación

El informe se hizo hace 1 hora y 1 minutos, a las 03:00 UTC
Viento 7 kt del este
Temperatura 29°C
Humedad 74%
Presión 1013 hPa
Visibilidad 10 km o más
Escasas nubes a una altura de 1800 ft

METAR: MWCR 240300Z 08007KT 9999 FEW018 29/24 Q1013

Hora: 23:01 (04:01 UTC)

Pronóstico

El informe se hizo hace 5 horas y 1 minutos, a las 23:00 UTC
Pronóstico válido del 24 a las 00 UTC al 24 a las 24 UTC
Viento 6 kt del este
Visibilidad 10 km o más
Escasas nubes a una altura de 2200 ft

TAF: MWCR 232300Z 2400/2424 10006KT 9999 FEW022

Observaciones y pronósticos meteorológicos de más de 4000 aeropuertos (mensajes METAR y TAF).

Los puntos amarillos y rojos representan las estaciones disponibles.

Ponga el ratón en el punto deseado para ver el nombre de la estación.

Haga clic para ver las observaciones y los pronósticos meteorológicos.

Para cambiar el mapa : haga clic en los botones verdes con una cruz de color negro para hacer un zoom, en el botón verde con un guión para alejar o en las flechas verdes para mapas adyacentes.


METAR-TAF: